createdAt,value
2018-04-26T00:02:14.701Z,76.10
2018-04-26T00:05:37.127Z,76.10
2018-04-26T00:09:00.347Z,76.00
2018-04-26T00:12:22.794Z,76.00
2018-04-26T00:15:45.232Z,75.70
2018-04-26T00:19:09.129Z,74.60
2018-04-26T00:22:32.342Z,74.30
2018-04-26T00:25:54.793Z,74.20
2018-04-26T00:29:17.998Z,74.00
2018-04-26T00:32:40.454Z,74.00
2018-04-26T00:36:02.913Z,74.20
2018-04-26T00:39:25.355Z,74.20
2018-04-26T00:42:48.614Z,73.90
2018-04-26T00:46:11.063Z,73.90
2018-04-26T00:49:33.510Z,74.00
2018-04-26T00:52:55.965Z,75.20
2018-04-26T00:56:18.402Z,76.80
2018-04-26T00:59:41.611Z,78.00
2018-04-26T01:03:04.055Z,78.00
2018-04-26T01:06:27.249Z,78.70
2018-04-26T01:09:49.689Z,78.60
2018-04-26T01:13:12.147Z,78.50
2018-04-26T01:16:34.566Z,78.90
2018-04-26T01:19:57.041Z,79.10
2018-04-26T01:23:20.201Z,78.80
2018-04-26T01:26:42.637Z,78.60
2018-04-26T01:30:05.841Z,79.20
2018-04-26T01:33:28.293Z,79.10
2018-04-26T01:37:03.369Z,80.20
2018-04-26T01:40:25.809Z,80.20
2018-04-26T01:43:49.013Z,79.30
2018-04-26T01:47:11.453Z,79.20
2018-04-26T01:50:34.667Z,80.90
2018-04-26T01:53:57.101Z,80.80
2018-04-26T01:57:20.301Z,79.70
2018-04-26T02:00:43.505Z,78.70
2018-04-26T02:04:05.946Z,77.90
2018-04-26T02:07:29.136Z,77.20
2018-04-26T02:10:52.917Z,77.20
2018-04-26T02:14:15.345Z,77.50
2018-04-26T02:17:37.801Z,77.20
2018-04-26T02:21:00.236Z,77.20
2018-04-26T02:24:22.669Z,77.40
2018-04-26T02:27:46.264Z,76.60
2018-04-26T02:31:08.695Z,76.60
2018-04-26T02:34:31.130Z,76.80
2018-04-26T02:37:53.586Z,76.30
2018-04-26T02:41:16.020Z,76.30
2018-04-26T02:44:39.225Z,75.60
2018-04-26T02:48:01.668Z,75.60
2018-04-26T02:51:24.860Z,76.80
2018-04-26T02:54:48.073Z,76.30
2018-04-26T02:58:10.512Z,76.30
2018-04-26T03:01:33.709Z,76.20
2018-04-26T03:04:56.156Z,76.20
2018-04-26T03:08:19.388Z,76.10
2018-04-26T03:11:41.781Z,75.30
2018-04-26T03:15:04.238Z,75.60
2018-04-26T03:18:26.674Z,75.40
2018-04-26T03:21:49.149Z,74.70
2018-04-26T03:25:12.407Z,73.90
2018-04-26T03:28:34.834Z,73.90
2018-04-26T03:31:58.032Z,73.10
2018-04-26T03:35:21.234Z,72.90
2018-04-26T03:38:43.676Z,72.70
2018-04-26T03:42:06.877Z,69.10
2018-04-26T03:45:29.318Z,69.10
2018-04-26T03:48:52.516Z,63.70
2018-04-26T03:52:14.953Z,63.80
2018-04-26T03:55:37.392Z,63.30
2018-04-26T03:58:59.833Z,63.40
2018-04-26T04:02:34.173Z,63.00
2018-04-26T04:09:49.988Z,60.30
2018-04-26T04:13:13.192Z,60.60
2018-04-26T04:16:35.681Z,60.50
2018-04-26T04:20:01.856Z,58.90
2018-04-26T04:23:24.280Z,59.30
2018-04-26T04:26:46.712Z,58.60
2018-04-26T04:30:09.157Z,58.30
2018-04-26T04:33:31.581Z,58.80
2018-04-26T04:36:54.026Z,58.60
2018-04-26T04:40:17.220Z,59.20
2018-04-26T04:43:39.653Z,59.20
2018-04-26T04:47:02.097Z,59.40
2018-04-26T04:50:24.532Z,59.50
2018-04-26T04:53:46.960Z,60.30
2018-04-26T04:57:10.165Z,61.60
2018-04-26T05:00:32.596Z,61.60
2018-04-26T05:03:55.788Z,62.50
2018-04-26T05:07:19.421Z,62.50
2018-04-26T05:10:41.853Z,63.80
2018-04-26T05:14:05.200Z,68.50
2018-04-26T05:17:27.626Z,68.50
2018-04-26T05:20:50.057Z,70.60
2018-04-26T05:24:13.272Z,72.80
2018-04-26T05:27:35.705Z,72.80
2018-04-26T05:30:58.906Z,74.80
2018-04-26T05:34:21.348Z,74.80
2018-04-26T05:37:43.777Z,74.40
2018-04-26T05:41:06.228Z,74.80
2018-04-26T05:44:28.656Z,75.60
2018-04-26T05:47:51.857Z,76.30
2018-04-26T05:51:14.296Z,76.20
2018-04-26T05:54:37.501Z,77.00
2018-04-26T05:57:59.937Z,77.00
2018-04-26T06:01:22.365Z,76.70
2018-04-26T06:04:44.804Z,77.50
2018-04-26T06:08:07.230Z,78.20
2018-04-26T06:11:30.435Z,78.40
2018-04-26T06:14:52.875Z,78.40
2018-04-26T06:18:15.304Z,77.90
2018-04-26T06:21:37.740Z,78.80
2018-04-26T06:25:00.216Z,78.90
2018-04-26T06:28:23.377Z,79.10
2018-04-26T06:31:45.817Z,78.90
2018-04-26T06:35:09.029Z,78.60
2018-04-26T06:38:31.498Z,78.60
2018-04-26T06:41:54.681Z,77.80
2018-04-26T06:45:17.125Z,77.70
2018-04-26T06:48:40.321Z,79.00
2018-04-26T06:52:02.770Z,78.90
2018-04-26T06:55:25.960Z,78.70
2018-04-26T06:58:48.391Z,78.60
2018-04-26T07:02:10.828Z,77.90
2018-04-26T07:05:33.267Z,77.10
2018-04-26T07:08:55.714Z,77.50
2018-04-26T07:12:19.023Z,78.00
2018-04-26T07:15:41.445Z,78.00
2018-04-26T07:19:03.877Z,77.30
2018-04-26T07:22:26.317Z,79.10
2018-04-26T07:25:48.764Z,76.70
2018-04-26T07:29:12.062Z,75.50
2018-04-26T07:32:34.489Z,75.40
2018-04-26T07:35:56.929Z,74.80
2018-04-26T07:39:20.597Z,74.30
2018-04-26T07:42:43.017Z,73.10
2018-04-26T07:46:06.245Z,73.00
2018-04-26T07:49:28.700Z,73.00
2018-04-26T07:52:51.138Z,72.80
2018-04-26T07:56:14.345Z,74.10
2018-04-26T07:59:36.773Z,74.10
2018-04-26T08:02:59.980Z,72.90
2018-04-26T08:06:22.417Z,72.90
2018-04-26T08:09:44.856Z,72.40
2018-04-26T08:13:08.504Z,71.90
2018-04-26T08:16:31.692Z,71.10
2018-04-26T08:19:54.121Z,71.00
2018-04-26T08:23:16.628Z,71.30
2018-04-26T08:26:39.057Z,70.60
2018-04-26T08:30:02.254Z,71.00
2018-04-26T08:33:25.454Z,71.30
2018-04-26T08:36:47.907Z,71.30
2018-04-26T08:40:11.100Z,70.70
2018-04-26T08:43:33.542Z,70.60
2018-04-26T08:46:56.750Z,69.70
2018-04-26T08:50:19.185Z,68.90
2018-04-26T08:53:42.381Z,68.60
2018-04-26T08:57:05.585Z,70.50
2018-04-26T09:00:28.035Z,70.50
2018-04-26T09:03:50.457Z,70.00
2018-04-26T09:07:12.889Z,68.00
2018-04-26T09:10:35.324Z,66.90
2018-04-26T09:13:57.753Z,66.00
2018-04-26T09:17:20.192Z,65.80
2018-04-26T09:20:42.735Z,65.90
2018-04-26T09:24:05.144Z,65.50
2018-04-26T09:27:27.591Z,66.30
2018-04-26T09:30:50.013Z,64.90
2018-04-26T09:34:12.448Z,62.90
2018-04-26T09:37:34.909Z,62.60
2018-04-26T09:40:57.329Z,62.70
2018-04-26T09:44:19.757Z,63.20
2018-04-26T09:47:43.011Z,64.10
2018-04-26T09:51:05.453Z,64.00
2018-04-26T09:54:27.901Z,63.80
2018-04-26T09:57:50.340Z,64.20
2018-04-26T10:01:12.783Z,64.60
2018-04-26T10:04:40.873Z,64.60
2018-04-26T10:08:03.305Z,65.20
2018-04-26T10:11:25.849Z,64.90
2018-04-26T10:14:49.029Z,64.80
2018-04-26T10:18:11.471Z,64.80
2018-04-26T10:21:34.673Z,64.60
2018-04-26T10:24:57.101Z,64.50
2018-04-26T10:28:19.574Z,64.50
2018-04-26T10:31:41.976Z,65.00
2018-04-26T10:35:04.422Z,65.30
2018-04-26T10:38:26.863Z,65.50
2018-04-26T10:41:49.305Z,65.40
2018-04-26T10:45:11.729Z,65.50
2018-04-26T10:48:34.173Z,65.20
2018-04-26T10:51:57.375Z,65.20
2018-04-26T10:55:19.816Z,65.20
2018-04-26T10:58:43.017Z,66.10
2018-04-26T11:02:05.709Z,66.00
2018-04-26T11:05:28.129Z,66.60
2018-04-26T11:08:51.337Z,66.50
2018-04-26T11:12:13.768Z,66.40
2018-04-26T11:15:36.265Z,65.50
2018-04-26T11:18:58.676Z,65.60
2018-04-26T11:22:21.108Z,64.20
2018-04-26T11:25:43.541Z,62.00
2018-04-26T11:29:06.749Z,59.60
2018-04-26T11:32:29.184Z,59.60
2018-04-26T11:39:39.744Z,57.70
2018-04-26T11:43:02.947Z,56.80
2018-04-26T11:46:25.390Z,56.80
2018-04-26T11:49:48.606Z,57.20
2018-04-26T11:53:11.066Z,57.20
2018-04-26T11:56:33.489Z,57.30
2018-04-26T11:59:55.962Z,56.00
2018-04-26T12:03:18.414Z,56.50
2018-04-26T12:06:40.869Z,56.30
2018-04-26T12:10:04.065Z,55.00
2018-04-26T12:13:26.510Z,55.00
2018-04-26T12:16:48.962Z,54.10
2018-04-26T12:20:11.411Z,55.10
2018-04-26T12:23:33.850Z,56.40
2018-04-26T12:26:57.055Z,56.90
2018-04-26T12:30:19.522Z,56.90
2018-04-26T12:33:41.954Z,57.60
2018-04-26T12:37:05.170Z,57.00
2018-04-26T12:40:27.601Z,57.00
2018-04-26T12:43:50.812Z,56.70
2018-04-26T12:47:13.277Z,56.70
2018-04-26T12:50:35.704Z,55.90
2018-04-26T12:53:58.148Z,54.80
2018-04-26T12:57:20.591Z,54.70
2018-04-26T13:00:43.026Z,54.30
2018-04-26T13:04:05.466Z,54.70
2018-04-26T13:07:28.679Z,55.00
2018-04-26T13:10:51.118Z,55.00
2018-04-26T13:14:14.338Z,53.80
2018-04-26T13:17:36.778Z,53.80
2018-04-26T13:20:59.213Z,53.70
2018-04-26T13:24:21.655Z,52.80
2018-04-26T13:27:44.093Z,53.10
2018-04-26T13:31:06.590Z,54.70
2018-04-26T13:34:29.021Z,53.00
2018-04-26T13:37:51.462Z,52.10
2018-04-26T13:41:13.896Z,51.90
2018-04-26T13:44:36.405Z,51.20
2018-04-26T13:47:58.841Z,51.20
2018-04-26T13:51:22.041Z,51.20
2018-04-26T13:54:44.498Z,51.20
2018-04-26T13:58:07.704Z,51.10
2018-04-26T14:01:30.138Z,51.10
2018-04-26T14:04:53.341Z,51.50
2018-04-26T14:08:15.786Z,51.50
2018-04-26T14:11:38.981Z,50.90
2018-04-26T14:15:01.441Z,50.90
2018-04-26T14:18:24.649Z,51.70
2018-04-26T14:21:47.093Z,51.60
2018-04-26T14:25:10.298Z,50.10
2018-04-26T14:28:32.746Z,50.10
2018-04-26T14:31:55.182Z,50.60
2018-04-26T14:35:18.155Z,50.30
2018-04-26T14:38:40.656Z,50.50
2018-04-26T14:42:03.094Z,50.70
2018-04-26T14:45:26.306Z,50.10
2018-04-26T14:48:48.746Z,50.00
2018-04-26T14:52:11.949Z,50.20
2018-04-26T14:55:34.393Z,50.20
2018-04-26T14:58:57.609Z,50.40
2018-04-26T15:02:20.041Z,50.40
2018-04-26T15:05:43.257Z,50.50
2018-04-26T15:09:05.695Z,50.50
2018-04-26T15:12:28.894Z,50.50
2018-04-26T15:15:51.341Z,50.50
2018-04-26T15:19:14.549Z,50.60
2018-04-26T15:22:36.985Z,50.60
2018-04-26T15:26:00.198Z,50.70
2018-04-26T15:29:22.675Z,50.70
2018-04-26T15:32:45.186Z,51.00
2018-04-26T15:36:07.598Z,51.20
2018-04-26T15:39:30.065Z,50.60
2018-04-26T15:42:52.494Z,50.50
2018-04-26T15:46:14.933Z,50.70
2018-04-26T15:49:38.355Z,51.30
2018-04-26T15:53:13.642Z,50.90
2018-04-26T15:56:53.962Z,50.90
2018-04-26T16:00:28.400Z,51.30
2018-04-26T16:04:02.935Z,51.50
2018-04-26T16:07:53.861Z,51.70
2018-04-26T16:11:29.394Z,51.30
2018-04-26T16:15:03.919Z,52.30
2018-04-26T16:18:44.002Z,52.00
2018-04-26T16:22:24.121Z,52.20
2018-04-26T16:25:59.259Z,49.60
2018-04-26T16:29:41.134Z,49.60
2018-04-26T16:33:15.490Z,50.30
2018-04-26T16:36:49.678Z,50.70
2018-04-26T16:40:12.110Z,50.70
2018-04-26T16:43:34.551Z,51.10
2018-04-26T16:46:57.010Z,50.00
2018-04-26T16:50:19.458Z,48.50
2018-04-26T16:53:42.668Z,46.10
2018-04-26T16:57:05.109Z,46.10
2018-04-26T17:00:28.322Z,46.70
2018-04-26T17:03:50.774Z,46.70
2018-04-26T17:07:13.217Z,46.60
2018-04-26T17:10:36.426Z,45.60
2018-04-26T17:13:58.865Z,45.50
2018-04-26T17:17:22.082Z,46.70
2018-04-26T17:20:44.513Z,46.60
2018-04-26T17:24:07.728Z,47.70
2018-04-26T17:27:30.170Z,47.70
2018-04-26T17:30:53.373Z,48.60
2018-04-26T17:34:15.814Z,48.60
2018-04-26T17:37:39.030Z,50.60
2018-04-26T17:41:01.503Z,50.60
2018-04-26T17:44:23.950Z,50.90
2018-04-26T17:47:46.399Z,51.30
2018-04-26T17:51:08.833Z,52.10
2018-04-26T17:54:31.282Z,51.40
2018-04-26T17:57:53.726Z,51.50
2018-04-26T18:01:16.157Z,51.80
2018-04-26T18:04:38.606Z,51.50
2018-04-26T18:08:01.820Z,51.70
2018-04-26T18:11:24.254Z,51.70
2018-04-26T18:14:47.464Z,51.90
2018-04-26T18:18:09.924Z,51.80
2018-04-26T18:21:32.352Z,52.40
2018-04-26T18:24:54.818Z,51.90
2018-04-26T18:28:17.262Z,51.50
2018-04-26T18:31:39.705Z,52.50
2018-04-26T18:35:02.257Z,52.80
2018-04-26T18:38:24.689Z,53.10
2018-04-26T18:41:47.885Z,53.40
2018-04-26T18:45:11.095Z,53.80
2018-04-26T18:48:33.534Z,53.80
2018-04-26T18:51:56.726Z,53.30
2018-04-26T18:55:19.884Z,53.20
2018-04-26T18:58:42.323Z,53.20
2018-04-26T19:02:04.745Z,52.60
2018-04-26T19:05:27.227Z,52.40
2018-04-26T19:08:49.682Z,53.00
2018-04-26T19:12:12.102Z,53.30
2018-04-26T19:15:34.546Z,53.20
2018-04-26T19:18:57.758Z,53.20
2018-04-26T19:22:20.964Z,54.20
2018-04-26T19:25:43.401Z,53.70
2018-04-26T19:29:05.837Z,54.30
2018-04-26T19:32:28.275Z,55.30
2018-04-26T19:35:51.009Z,54.60
2018-04-26T19:39:14.230Z,55.40
2018-04-26T19:42:36.673Z,55.40
2018-04-26T19:45:59.902Z,56.20
2018-04-26T19:49:22.405Z,56.00
2018-04-26T19:52:44.774Z,56.20
2018-04-26T19:56:08.566Z,57.60
2018-04-26T19:59:30.998Z,57.60
2018-04-26T20:02:53.435Z,58.50
2018-04-26T20:06:15.917Z,58.20
2018-04-26T20:09:38.365Z,57.60
2018-04-26T20:13:00.797Z,56.80
2018-04-26T20:16:24.034Z,56.10
2018-04-26T20:19:46.478Z,56.10
2018-04-26T20:23:08.918Z,56.10
2018-04-26T20:26:32.133Z,56.40
2018-04-26T20:29:54.582Z,56.40
2018-04-26T20:33:17.037Z,57.00
2018-04-26T20:36:39.486Z,56.90
2018-04-26T20:40:02.702Z,57.30
2018-04-26T20:43:25.159Z,57.20
2018-04-26T20:46:47.590Z,57.30
2018-04-26T20:50:10.126Z,57.30
2018-04-26T20:53:32.561Z,57.30
2018-04-26T20:56:55.013Z,57.80
2018-04-26T21:00:17.458Z,58.40
2018-04-26T21:03:40.669Z,59.60
2018-04-26T21:07:03.117Z,60.10
2018-04-26T21:10:26.329Z,60.60
2018-04-26T21:13:48.778Z,60.70
2018-04-26T21:17:11.229Z,61.20
2018-04-26T21:20:34.448Z,61.90
2018-04-26T21:23:56.899Z,61.80
2018-04-26T21:27:19.529Z,61.70
2018-04-26T21:30:42.739Z,61.20
2018-04-26T21:34:05.190Z,61.10
2018-04-26T21:37:28.394Z,61.30
2018-04-26T21:40:50.841Z,61.30
2018-04-26T21:44:14.063Z,57.70
2018-04-26T21:47:36.501Z,57.50
2018-04-26T21:51:04.573Z,57.50
2018-04-26T21:54:33.626Z,56.80
2018-04-26T21:58:01.684Z,56.80
2018-04-26T22:01:29.894Z,56.80
2018-04-26T22:08:50.388Z,55.70
2018-04-26T22:12:12.826Z,55.30
2018-04-26T22:15:36.027Z,54.70
2018-04-26T22:18:58.453Z,54.60
2018-04-26T22:22:20.898Z,54.60
2018-04-26T22:25:43.373Z,54.60
2018-04-26T22:29:05.809Z,54.00
2018-04-26T22:32:28.265Z,53.30
2018-04-26T22:35:50.700Z,53.50
2018-04-26T22:39:13.897Z,53.00
2018-04-26T22:42:36.341Z,53.00
2018-04-26T22:45:59.549Z,54.70
2018-04-26T22:49:21.982Z,54.60
2018-04-26T22:52:45.200Z,56.10
2018-04-26T22:56:07.639Z,56.10
2018-04-26T22:59:30.837Z,56.80
2018-04-26T23:02:53.286Z,56.70
2018-04-26T23:06:16.508Z,57.80
2018-04-26T23:09:38.942Z,57.80
2018-04-26T23:13:02.149Z,59.10
2018-04-26T23:16:24.597Z,59.10
2018-04-26T23:19:47.030Z,60.10
2018-04-26T23:23:09.465Z,60.10
2018-04-26T23:26:31.963Z,60.10
2018-04-26T23:29:54.368Z,59.70
2018-04-26T23:33:16.817Z,59.50
2018-04-26T23:36:39.260Z,59.80
2018-04-26T23:40:01.694Z,60.00
2018-04-26T23:43:24.897Z,62.30
2018-04-26T23:46:47.333Z,62.30
2018-04-26T23:50:09.782Z,62.60
2018-04-26T23:53:32.222Z,63.40
2018-04-26T23:56:55.421Z,64.80
